createdAt,value
2018-06-18T00:00:17.249Z,13.80
2018-06-18T00:01:20.677Z,13.80
2018-06-18T00:02:24.411Z,13.76
2018-06-18T00:03:27.299Z,13.78
2018-06-18T00:04:30.720Z,13.82
2018-06-18T00:05:33.829Z,13.88
2018-06-18T00:06:36.654Z,13.93
2018-06-18T00:07:39.623Z,13.91
2018-06-18T00:08:42.426Z,13.96
2018-06-18T00:09:46.229Z,13.99
2018-06-18T00:10:56.402Z,13.95
2018-06-18T00:11:59.228Z,13.85
2018-06-18T00:13:02.110Z,13.77
2018-06-18T00:14:06.158Z,13.64
2018-06-18T00:15:08.980Z,13.59
2018-06-18T00:16:11.787Z,13.58
2018-06-18T00:17:17.057Z,13.61
2018-06-18T00:18:19.999Z,13.62
2018-06-18T00:19:22.847Z,13.68
2018-06-18T00:20:25.700Z,13.75
2018-06-18T00:21:28.669Z,13.74
2018-06-18T00:22:32.424Z,13.70
2018-06-18T00:23:35.560Z,13.66
2018-06-18T00:24:39.453Z,13.66
2018-06-18T00:25:42.355Z,13.69
2018-06-18T00:26:45.785Z,13.76
2018-06-18T00:27:48.839Z,13.66
2018-06-18T00:28:51.649Z,13.59
2018-06-18T00:29:58.269Z,13.57
2018-06-18T00:31:01.109Z,13.58
2018-06-18T00:32:03.953Z,13.67
2018-06-18T00:33:06.755Z,13.70
2018-06-18T00:34:09.558Z,13.69
2018-06-18T00:35:12.369Z,13.68
2018-06-18T00:36:15.463Z,13.73
2018-06-18T00:37:18.249Z,13.77
2018-06-18T00:38:21.592Z,13.81
2018-06-18T00:39:24.605Z,13.81
2018-06-18T00:40:27.485Z,13.67
2018-06-18T00:41:30.495Z,13.68
2018-06-18T00:42:33.619Z,13.61
2018-06-18T00:43:36.437Z,13.64
2018-06-18T00:44:39.256Z,13.71
2018-06-18T00:45:42.050Z,13.76
2018-06-18T00:46:44.866Z,13.76
2018-06-18T00:47:47.682Z,13.80
2018-06-18T00:48:52.433Z,13.89
2018-06-18T00:49:55.245Z,13.90
2018-06-18T00:50:58.082Z,13.90
2018-06-18T00:52:00.936Z,13.85
2018-06-18T00:53:03.812Z,13.85
2018-06-18T00:54:06.591Z,13.84
2018-06-18T00:55:09.783Z,13.83
2018-06-18T00:56:13.703Z,13.80
2018-06-18T00:57:16.816Z,13.82
2018-06-18T00:58:19.610Z,13.86
2018-06-18T00:59:22.472Z,13.87
2018-06-18T01:00:25.391Z,13.84
2018-06-18T01:01:28.600Z,13.83
2018-06-18T01:02:31.406Z,13.82
2018-06-18T01:03:35.361Z,13.84
2018-06-18T01:04:38.152Z,13.83
2018-06-18T01:05:40.939Z,13.82
2018-06-18T01:06:43.734Z,13.78
2018-06-18T01:07:46.918Z,13.73
2018-06-18T01:08:49.751Z,13.69
2018-06-18T01:09:53.348Z,13.70
2018-06-18T01:10:56.165Z,13.64
2018-06-18T01:11:58.979Z,13.59
2018-06-18T01:13:01.832Z,13.62
2018-06-18T01:14:04.964Z,13.68
2018-06-18T01:15:07.779Z,13.71
2018-06-18T01:16:10.593Z,13.73
2018-06-18T01:17:13.384Z,13.74
2018-06-18T01:18:16.152Z,13.75
2018-06-18T01:19:18.951Z,13.69
2018-06-18T01:20:23.079Z,13.69
2018-06-18T01:21:25.874Z,13.74
2018-06-18T01:22:28.688Z,13.76
2018-06-18T01:23:31.458Z,13.78
2018-06-18T01:24:35.388Z,13.80
2018-06-18T01:25:39.047Z,13.74
2018-06-18T01:26:42.319Z,13.70
2018-06-18T01:27:45.110Z,13.58
2018-06-18T01:28:47.918Z,13.63
2018-06-18T01:29:50.759Z,13.62
2018-06-18T01:30:53.566Z,13.67
2018-06-18T01:31:57.247Z,13.57
2018-06-18T01:33:00.420Z,13.58
2018-06-18T01:34:03.207Z,13.63
2018-06-18T01:35:06.010Z,13.64
2018-06-18T01:36:08.778Z,13.65
2018-06-18T01:37:11.542Z,13.66
2018-06-18T01:38:14.308Z,13.66
2018-06-18T01:39:17.627Z,13.64
2018-06-18T01:40:20.422Z,13.67
2018-06-18T01:41:23.276Z,13.62
2018-06-18T01:42:26.052Z,13.66
2018-06-18T01:43:28.822Z,13.69
2018-06-18T01:44:31.577Z,13.69
2018-06-18T01:45:34.793Z,13.64
2018-06-18T01:46:38.877Z,13.58
2018-06-18T01:47:42.541Z,13.60
2018-06-18T01:48:45.267Z,13.60
2018-06-18T01:49:48.053Z,13.59
2018-06-18T01:50:50.843Z,13.55
2018-06-18T01:51:55.223Z,13.50
2018-06-18T01:52:58.615Z,13.50
2018-06-18T01:54:01.462Z,13.51
2018-06-18T01:55:04.232Z,13.47
2018-06-18T01:56:07.024Z,13.50
2018-06-18T01:57:09.801Z,13.57
2018-06-18T01:58:13.447Z,13.63
2018-06-18T01:59:16.199Z,13.70
2018-06-18T02:00:18.975Z,13.70
2018-06-18T02:01:21.777Z,13.75
2018-06-18T02:02:26.644Z,13.78
2018-06-18T02:03:29.409Z,13.80
2018-06-18T02:04:32.649Z,13.80
2018-06-18T02:05:36.023Z,13.78
2018-06-18T02:06:38.815Z,13.78
2018-06-18T02:07:42.190Z,13.77
2018-06-18T02:08:44.953Z,13.78
2018-06-18T02:09:47.742Z,13.83
2018-06-18T02:10:51.124Z,13.75
2018-06-18T02:11:53.854Z,13.78
2018-06-18T02:12:56.641Z,13.83
2018-06-18T02:13:59.442Z,13.89
2018-06-18T02:15:02.240Z,13.90
2018-06-18T02:16:05.037Z,13.91
2018-06-18T02:17:08.189Z,13.90
2018-06-18T02:18:10.992Z,13.94
2018-06-18T02:19:13.827Z,13.89
2018-06-18T02:20:16.577Z,13.86
2018-06-18T02:21:19.366Z,13.78
2018-06-18T02:22:22.241Z,13.71
2018-06-18T02:23:25.443Z,13.73
2018-06-18T02:24:29.447Z,13.73
2018-06-18T02:25:32.240Z,13.79
2018-06-18T02:26:35.020Z,13.82
2018-06-18T02:27:42.600Z,13.85
2018-06-18T02:28:50.356Z,13.87
2018-06-18T02:29:58.450Z,13.77
2018-06-18T02:31:06.067Z,13.73
2018-06-18T02:32:13.802Z,13.72
2018-06-18T02:33:21.454Z,13.75
2018-06-18T02:34:29.031Z,13.77
2018-06-18T02:35:37.264Z,13.80
2018-06-18T02:36:45.022Z,13.73
2018-06-18T02:37:52.870Z,13.72
2018-06-18T02:39:00.687Z,13.73
2018-06-18T02:40:08.330Z,13.72
2018-06-18T02:41:11.314Z,13.65
2018-06-18T02:42:14.482Z,13.57
2018-06-18T02:43:19.078Z,13.58
2018-06-18T02:44:21.856Z,13.63
2018-06-18T02:45:24.624Z,13.69
2018-06-18T02:46:27.374Z,13.72
2018-06-18T02:47:30.174Z,13.72
2018-06-18T02:48:33.427Z,13.76
2018-06-18T02:49:36.191Z,13.80
2018-06-18T02:50:38.970Z,13.80
2018-06-18T02:51:41.717Z,13.76
2018-06-18T02:52:44.447Z,13.78
2018-06-18T02:53:47.213Z,13.83
2018-06-18T02:54:50.272Z,13.84
2018-06-18T02:55:53.496Z,13.77
2018-06-18T02:56:56.289Z,13.79
2018-06-18T02:57:59.815Z,13.79
2018-06-18T02:59:02.603Z,13.78
2018-06-18T03:00:06.253Z,13.78
2018-06-18T03:01:10.520Z,13.74
2018-06-18T03:02:13.328Z,13.75
2018-06-18T03:03:17.234Z,13.80
2018-06-18T03:04:19.984Z,13.78
2018-06-18T03:05:22.756Z,13.75
2018-06-18T03:06:25.504Z,13.68
2018-06-18T03:07:28.556Z,13.69
2018-06-18T03:08:32.185Z,13.67
2018-06-18T03:09:34.934Z,13.60
2018-06-18T03:10:37.715Z,13.53
2018-06-18T03:11:40.665Z,13.54
2018-06-18T03:12:43.507Z,13.64
2018-06-18T03:13:46.541Z,13.68
2018-06-18T03:14:49.304Z,13.68
2018-06-18T03:15:52.107Z,13.69
2018-06-18T03:16:54.865Z,13.64
2018-06-18T03:17:57.664Z,13.62
2018-06-18T03:19:05.335Z,13.66
2018-06-18T03:20:13.419Z,13.71
2018-06-18T03:21:21.114Z,13.67
2018-06-18T03:22:28.767Z,13.69
2018-06-18T03:23:36.313Z,13.72
2018-06-18T03:24:43.991Z,13.72
2018-06-18T03:25:51.595Z,13.65
2018-06-18T03:26:59.619Z,13.68
2018-06-18T03:28:07.164Z,13.66
2018-06-18T03:29:16.533Z,13.55
2018-06-18T03:30:20.325Z,13.58
2018-06-18T03:31:23.839Z,13.57
2018-06-18T03:32:26.615Z,13.60
2018-06-18T03:33:29.712Z,13.60
2018-06-18T03:34:32.481Z,13.63
2018-06-18T03:35:35.318Z,13.68
2018-06-18T03:36:38.053Z,13.70
2018-06-18T03:37:40.843Z,13.67
2018-06-18T03:38:43.614Z,13.71
2018-06-18T03:39:46.784Z,13.79
2018-06-18T03:40:49.657Z,13.82
2018-06-18T03:41:52.507Z,13.87
2018-06-18T03:42:55.310Z,13.90
2018-06-18T03:44:01.632Z,13.86
2018-06-18T03:45:04.442Z,13.77
2018-06-18T03:46:07.762Z,13.71
2018-06-18T03:47:10.547Z,13.78
2018-06-18T03:48:13.317Z,13.80
2018-06-18T03:49:16.114Z,13.86
2018-06-18T03:50:18.926Z,13.90
2018-06-18T03:51:21.734Z,13.91
2018-06-18T03:52:27.970Z,13.95
2018-06-18T03:53:30.765Z,13.96
2018-06-18T03:54:34.328Z,13.94
2018-06-18T03:55:37.134Z,13.96
2018-06-18T03:56:39.925Z,13.89
2018-06-18T03:57:42.698Z,13.84
2018-06-18T03:58:45.901Z,13.86
2018-06-18T03:59:48.822Z,13.88
2018-06-18T04:00:56.362Z,13.90
2018-06-18T04:02:04.037Z,13.91
2018-06-18T04:03:11.781Z,13.84
2018-06-18T04:04:19.380Z,13.87
2018-06-18T04:05:27.397Z,13.94
2018-06-18T04:06:35.113Z,13.92
2018-06-18T04:07:42.740Z,13.94
2018-06-18T04:08:48.488Z,13.90
2018-06-18T04:09:56.736Z,13.89
2018-06-18T04:11:04.436Z,13.97
2018-06-18T04:12:10.263Z,14.03
2018-06-18T04:13:14.461Z,14.04
2018-06-18T04:14:17.357Z,14.03
2018-06-18T04:15:20.104Z,14.08
2018-06-18T04:16:22.884Z,14.08
2018-06-18T04:17:25.669Z,14.01
2018-06-18T04:18:28.748Z,14.00
2018-06-18T04:19:31.607Z,14.04
2018-06-18T04:20:34.373Z,14.05
2018-06-18T04:21:37.115Z,14.09
2018-06-18T04:22:40.439Z,14.12
2018-06-18T04:23:44.660Z,14.11
2018-06-18T04:24:47.763Z,14.13
2018-06-18T04:25:50.529Z,14.16
2018-06-18T04:26:53.545Z,14.18
2018-06-18T04:27:56.423Z,14.23
2018-06-18T04:28:59.970Z,14.23
2018-06-18T04:30:02.758Z,14.15
2018-06-18T04:31:05.872Z,14.13
2018-06-18T04:32:08.601Z,14.00
2018-06-18T04:33:11.436Z,13.93
2018-06-18T04:34:14.290Z,14.01
2018-06-18T04:35:17.076Z,14.21
2018-06-18T04:36:19.850Z,14.35
2018-06-18T04:37:23.800Z,14.43
2018-06-18T04:38:27.252Z,14.51
2018-06-18T04:39:30.337Z,14.56
2018-06-18T04:40:33.086Z,14.60
2018-06-18T04:41:39.819Z,14.60
2018-06-18T04:42:47.510Z,14.50
2018-06-18T04:43:55.585Z,14.51
2018-06-18T04:45:03.292Z,14.59
2018-06-18T04:46:10.989Z,14.65
2018-06-18T04:47:18.645Z,14.72
2018-06-18T04:48:26.693Z,14.71
2018-06-18T04:49:34.417Z,14.67
2018-06-18T04:50:42.554Z,14.54
2018-06-18T04:51:45.389Z,14.43
2018-06-18T04:52:48.160Z,14.38
2018-06-18T04:53:50.956Z,14.45
2018-06-18T04:54:53.765Z,14.53
2018-06-18T04:55:56.556Z,14.58
2018-06-18T04:56:59.857Z,14.61
2018-06-18T04:58:02.634Z,14.65
2018-06-18T04:59:08.472Z,14.65
2018-06-18T05:00:11.263Z,14.63
2018-06-18T05:01:14.043Z,14.55
2018-06-18T05:02:16.838Z,14.35
2018-06-18T05:03:20.068Z,14.22
2018-06-18T05:04:22.876Z,14.24
2018-06-18T05:05:25.664Z,14.23
2018-06-18T05:06:28.446Z,14.20
2018-06-18T05:07:31.269Z,14.29
2018-06-18T05:08:34.387Z,14.31
2018-06-18T05:09:38.870Z,14.30
2018-06-18T05:10:42.359Z,14.34
2018-06-18T05:11:45.181Z,14.43
2018-06-18T05:12:48.015Z,14.54
2018-06-18T05:13:50.862Z,14.51
2018-06-18T05:14:53.871Z,14.58
2018-06-18T05:15:57.015Z,14.59
2018-06-18T05:17:00.179Z,14.63
2018-06-18T05:18:02.993Z,14.63
2018-06-18T05:19:05.889Z,14.67
2018-06-18T05:20:08.732Z,14.67
2018-06-18T05:21:11.541Z,14.72
2018-06-18T05:22:14.729Z,14.80
2018-06-18T05:23:19.121Z,14.86
2018-06-18T05:24:21.942Z,14.81
2018-06-18T05:25:24.759Z,14.81
2018-06-18T05:26:27.603Z,14.76
2018-06-18T05:27:30.570Z,14.75
2018-06-18T05:28:34.438Z,14.81
2018-06-18T05:29:37.254Z,14.83
2018-06-18T05:30:46.359Z,14.81
2018-06-18T05:31:49.657Z,14.80
2018-06-18T05:32:52.449Z,14.75
2018-06-18T05:33:55.214Z,14.69
2018-06-18T05:34:58.311Z,14.77
2018-06-18T05:36:01.263Z,14.85
2018-06-18T05:37:04.104Z,14.83
2018-06-18T05:38:06.853Z,14.88
2018-06-18T05:39:09.897Z,14.80
2018-06-18T05:40:15.218Z,14.81
2018-06-18T05:41:19.736Z,14.89
2018-06-18T05:42:24.476Z,14.91
2018-06-18T05:43:27.408Z,14.95
2018-06-18T05:44:34.641Z,15.01
2018-06-18T05:45:37.462Z,15.02
2018-06-18T05:46:40.253Z,15.03
2018-06-18T05:47:43.529Z,15.04
2018-06-18T05:48:46.340Z,15.05
2018-06-18T05:49:49.247Z,15.03
2018-06-18T05:50:52.212Z,15.04
2018-06-18T05:51:54.979Z,14.98
2018-06-18T05:52:58.210Z,14.99
2018-06-18T05:54:01.647Z,14.98
2018-06-18T05:55:05.203Z,15.01
2018-06-18T05:56:09.709Z,14.99
2018-06-18T05:57:12.489Z,14.93
2018-06-18T05:58:16.861Z,14.94
2018-06-18T05:59:19.890Z,14.74
2018-06-18T06:00:22.834Z,14.64
2018-06-18T06:01:25.914Z,14.63
2018-06-18T06:02:28.794Z,14.64
2018-06-18T06:03:31.814Z,14.66
2018-06-18T06:04:34.642Z,14.67
2018-06-18T06:05:37.674Z,14.65
2018-06-18T06:06:40.432Z,14.58
2018-06-18T06:07:43.191Z,14.54
2018-06-18T06:08:46.207Z,14.53
2018-06-18T06:09:49.153Z,14.51
2018-06-18T06:10:52.400Z,14.57
2018-06-18T06:11:56.634Z,14.57
2018-06-18T06:12:59.415Z,14.64
2018-06-18T06:14:05.199Z,14.68
2018-06-18T06:15:07.993Z,14.79
2018-06-18T06:16:10.824Z,14.90
2018-06-18T06:17:14.056Z,15.03
2018-06-18T06:18:16.875Z,15.01
2018-06-18T06:19:19.632Z,15.03
2018-06-18T06:20:22.433Z,14.91
2018-06-18T06:21:25.272Z,14.89
2018-06-18T06:22:28.064Z,14.92
2018-06-18T06:23:31.253Z,15.10
2018-06-18T06:24:34.190Z,15.15
2018-06-18T06:25:37.109Z,15.24
2018-06-18T06:26:39.953Z,15.48
2018-06-18T06:27:42.749Z,15.28
2018-06-18T06:28:45.569Z,15.22
2018-06-18T06:29:48.827Z,15.17
2018-06-18T06:30:52.827Z,15.11
2018-06-18T06:31:55.861Z,15.12
2018-06-18T06:32:59.632Z,15.12
2018-06-18T06:34:02.468Z,15.20
2018-06-18T06:35:05.241Z,15.26
2018-06-18T06:36:08.409Z,15.23
2018-06-18T06:37:11.714Z,15.25
2018-06-18T06:38:14.758Z,15.22
2018-06-18T06:39:17.544Z,15.28
2018-06-18T06:40:20.405Z,15.45
2018-06-18T06:41:23.183Z,15.38
2018-06-18T06:42:26.510Z,15.31
2018-06-18T06:43:29.302Z,15.33
2018-06-18T06:44:32.066Z,15.34
2018-06-18T06:45:34.869Z,15.31
2018-06-18T06:46:38.617Z,15.33
2018-06-18T06:47:42.994Z,15.42
2018-06-18T06:48:46.707Z,15.42
2018-06-18T06:49:49.483Z,15.51
2018-06-18T06:50:52.314Z,15.53
2018-06-18T06:51:55.230Z,15.50
2018-06-18T06:52:58.299Z,15.48
2018-06-18T06:54:01.086Z,15.49
2018-06-18T06:55:04.270Z,15.59
2018-06-18T06:56:10.040Z,15.60
2018-06-18T06:57:12.862Z,15.75
2018-06-18T06:58:15.963Z,15.84
2018-06-18T06:59:18.780Z,15.90
2018-06-18T07:00:23.108Z,16.00
2018-06-18T07:01:25.960Z,16.12
2018-06-18T07:02:28.771Z,16.26
2018-06-18T07:03:31.561Z,16.14
2018-06-18T07:04:34.328Z,16.03
2018-06-18T07:05:37.414Z,15.93
2018-06-18T07:06:40.512Z,15.86
2018-06-18T07:07:43.365Z,15.77
2018-06-18T07:08:47.181Z,15.79
2018-06-18T07:09:49.977Z,15.82
2018-06-18T07:10:52.843Z,15.93
2018-06-18T07:11:55.722Z,16.03
2018-06-18T07:12:59.244Z,16.02
2018-06-18T07:14:02.046Z,16.09
2018-06-18T07:15:04.845Z,16.29
2018-06-18T07:16:08.532Z,16.44
2018-06-18T07:17:12.171Z,16.68
2018-06-18T07:18:17.366Z,16.73
2018-06-18T07:19:20.141Z,16.69
2018-06-18T07:20:23.589Z,16.61
2018-06-18T07:21:28.770Z,16.58
2018-06-18T07:22:32.535Z,16.79
2018-06-18T07:23:35.330Z,16.78
2018-06-18T07:24:38.542Z,16.58
2018-06-18T07:25:41.346Z,16.63
2018-06-18T07:26:44.141Z,16.76
2018-06-18T07:27:46.912Z,16.75
2018-06-18T07:28:49.804Z,16.81
2018-06-18T07:29:53.233Z,16.97
2018-06-18T07:30:56.591Z,16.93
2018-06-18T07:31:59.404Z,17.00
2018-06-18T07:33:02.378Z,16.95
2018-06-18T07:34:05.794Z,16.92
2018-06-18T07:35:08.623Z,17.20
2018-06-18T07:36:12.930Z,17.38
2018-06-18T07:37:16.068Z,17.73
2018-06-18T07:38:18.883Z,17.39
2018-06-18T07:39:21.683Z,17.53
2018-06-18T07:40:24.572Z,17.59
2018-06-18T07:41:28.367Z,17.09
2018-06-18T07:42:31.781Z,17.11
2018-06-18T07:43:37.649Z,17.01
2018-06-18T07:44:41.060Z,16.91
2018-06-18T07:45:43.862Z,17.05
2018-06-18T07:46:46.750Z,17.32
2018-06-18T07:47:49.956Z,16.99
2018-06-18T07:48:52.761Z,17.13
2018-06-18T07:49:56.036Z,17.11
2018-06-18T07:50:58.855Z,17.71
2018-06-18T07:52:01.727Z,17.64
2018-06-18T07:53:04.580Z,17.49
2018-06-18T07:54:08.206Z,17.47
2018-06-18T07:55:12.138Z,17.46
2018-06-18T07:56:16.080Z,17.40
2018-06-18T07:57:19.699Z,17.20
2018-06-18T07:58:23.082Z,17.31
2018-06-18T07:59:25.919Z,17.29
2018-06-18T08:00:28.721Z,17.28
2018-06-18T08:01:31.838Z,17.49
2018-06-18T08:02:34.614Z,17.40
2018-06-18T08:03:37.705Z,17.18
2018-06-18T08:04:45.269Z,17.15
2018-06-18T08:05:48.059Z,17.22
2018-06-18T08:06:50.856Z,17.24
2018-06-18T08:07:55.088Z,17.27
2018-06-18T08:08:57.869Z,17.42
2018-06-18T08:10:00.776Z,17.54
2018-06-18T08:11:04.236Z,17.42
2018-06-18T08:12:06.988Z,17.38
2018-06-18T08:13:09.801Z,17.51
2018-06-18T08:14:13.077Z,17.42
2018-06-18T08:15:15.939Z,17.43
2018-06-18T08:16:18.797Z,17.63
2018-06-18T08:17:22.615Z,17.78
2018-06-18T08:18:25.489Z,17.46
2018-06-18T08:19:28.255Z,17.44
2018-06-18T08:20:34.770Z,17.73
2018-06-18T08:21:37.725Z,18.06
2018-06-18T08:22:41.486Z,18.10
2018-06-18T08:23:44.325Z,17.87
2018-06-18T08:24:47.266Z,18.03
2018-06-18T08:25:50.034Z,18.00
2018-06-18T08:26:53.194Z,17.52
2018-06-18T08:27:57.929Z,17.18
2018-06-18T08:29:00.723Z,17.25
2018-06-18T08:30:03.620Z,17.58
2018-06-18T08:31:06.697Z,18.03
2018-06-18T08:32:10.517Z,17.82
2018-06-18T08:33:13.340Z,17.66
2018-06-18T08:34:16.220Z,17.61
2018-06-18T08:35:21.643Z,17.28
2018-06-18T08:36:24.471Z,17.70
2018-06-18T08:37:27.291Z,17.39
2018-06-18T08:38:30.625Z,17.18
2018-06-18T08:39:34.591Z,17.43
2018-06-18T08:40:37.419Z,17.51
2018-06-18T08:41:41.103Z,17.42
2018-06-18T08:42:43.890Z,17.51
2018-06-18T08:43:46.795Z,17.37
2018-06-18T08:44:52.618Z,17.10
2018-06-18T08:45:55.724Z,16.81
2018-06-18T08:46:58.841Z,16.91
2018-06-18T08:48:01.631Z,17.19
2018-06-18T08:49:07.057Z,17.18
2018-06-18T08:50:15.767Z,17.01
2018-06-18T08:51:24.208Z,17.04
2018-06-18T08:52:31.903Z,17.54
2018-06-18T08:53:39.505Z,17.22
2018-06-18T08:54:47.240Z,17.68
2018-06-18T08:55:54.932Z,17.59
2018-06-18T08:57:02.787Z,17.83
2018-06-18T08:58:10.679Z,17.54
2018-06-18T08:59:19.887Z,17.43
2018-06-18T09:00:27.500Z,17.47
2018-06-18T09:01:33.473Z,17.82
2018-06-18T09:02:36.466Z,17.96
2018-06-18T09:03:46.023Z,17.93
2018-06-18T09:04:54.622Z,17.78
2018-06-18T09:06:03.493Z,17.20
2018-06-18T09:07:16.204Z,17.28
2018-06-18T09:08:28.129Z,17.21
2018-06-18T09:09:31.130Z,17.08
2018-06-18T09:10:34.921Z,17.26
2018-06-18T09:11:38.435Z,17.41
2018-06-18T09:12:41.181Z,17.65
2018-06-18T09:13:44.620Z,17.68
2018-06-18T09:14:47.847Z,17.72
2018-06-18T09:15:51.839Z,17.84
2018-06-18T09:16:54.603Z,17.76
2018-06-18T09:17:58.320Z,17.55
2018-06-18T09:19:02.283Z,17.41
2018-06-18T09:20:05.089Z,17.42
2018-06-18T09:21:09.609Z,17.37
2018-06-18T09:22:12.672Z,17.28
2018-06-18T09:23:16.421Z,17.36
2018-06-18T09:24:19.400Z,17.58
2018-06-18T09:25:22.782Z,17.54
2018-06-18T09:26:25.701Z,17.49
2018-06-18T09:27:29.720Z,17.53
2018-06-18T09:28:33.805Z,17.33
2018-06-18T09:29:38.543Z,17.05
2018-06-18T09:30:41.359Z,17.13
2018-06-18T09:31:50.179Z,17.08
2018-06-18T09:32:52.991Z,17.02
2018-06-18T09:33:55.772Z,17.11
2018-06-18T09:35:00.201Z,17.21
2018-06-18T09:36:03.829Z,17.33
2018-06-18T09:37:08.212Z,17.67
2018-06-18T09:38:11.368Z,17.74
2018-06-18T09:39:16.125Z,17.67
2018-06-18T09:40:18.929Z,17.52
2018-06-18T09:41:21.718Z,17.66
2018-06-18T09:42:24.546Z,17.82
2018-06-18T09:43:28.204Z,18.10
2018-06-18T09:44:32.015Z,17.92
2018-06-18T09:45:36.688Z,18.01
2018-06-18T09:46:40.390Z,17.72
2018-06-18T09:47:43.162Z,17.69
2018-06-18T09:48:50.850Z,17.59
2018-06-18T09:49:58.429Z,17.18
2018-06-18T09:51:07.561Z,17.08
2018-06-18T09:52:15.138Z,17.15
2018-06-18T09:53:23.595Z,17.21
2018-06-18T09:56:33.744Z,17.36
2018-06-18T09:57:41.801Z,17.18
2018-06-18T09:58:50.088Z,17.24
2018-06-18T09:59:57.817Z,17.31
2018-06-18T10:01:03.111Z,17.29
2018-06-18T10:02:06.952Z,17.43
2018-06-18T10:03:14.123Z,17.75
2018-06-18T10:04:19.099Z,17.98
2018-06-18T10:05:21.893Z,17.72
2018-06-18T10:06:27.076Z,17.54
2018-06-18T10:07:31.054Z,17.73
2018-06-18T10:08:33.928Z,17.97
2018-06-18T10:09:37.194Z,17.89
2018-06-18T10:10:40.061Z,18.13
2018-06-18T10:11:42.850Z,17.92
2018-06-18T10:12:45.718Z,17.94
2018-06-18T10:13:48.559Z,18.06
2018-06-18T10:14:51.361Z,18.22
2018-06-18T10:15:54.628Z,18.15
2018-06-18T10:16:58.717Z,18.52
2018-06-18T10:18:02.184Z,18.81
2018-06-18T10:19:04.982Z,18.70
2018-06-18T10:20:07.777Z,18.10
2018-06-18T10:21:11.874Z,18.12
2018-06-18T10:22:15.176Z,18.01
2018-06-18T10:23:17.969Z,18.09
2018-06-18T10:24:21.159Z,18.04
2018-06-18T10:25:24.916Z,18.06
2018-06-18T10:26:27.705Z,18.16
2018-06-18T10:27:30.522Z,18.22
2018-06-18T10:28:34.474Z,18.48
2018-06-18T10:29:37.304Z,18.40
2018-06-18T10:30:41.961Z,18.78
2018-06-18T10:31:44.814Z,18.64
2018-06-18T10:32:52.421Z,18.45
2018-06-18T10:34:00.279Z,18.48
2018-06-18T10:35:07.980Z,18.62
2018-06-18T10:36:15.793Z,18.51
2018-06-18T10:37:24.078Z,18.51
2018-06-18T10:38:31.805Z,18.99
2018-06-18T10:39:39.486Z,18.75
2018-06-18T10:40:47.595Z,18.41
2018-06-18T10:42:00.617Z,18.48
2018-06-18T10:43:08.304Z,18.41
2018-06-18T10:44:11.099Z,18.31
2018-06-18T10:45:13.875Z,18.62
2018-06-18T10:46:18.099Z,18.71
2018-06-18T10:47:21.267Z,19.00
2018-06-18T10:48:24.565Z,18.75
2018-06-18T10:49:31.905Z,18.74
2018-06-18T10:50:35.555Z,18.73
2018-06-18T10:51:38.410Z,18.57
2018-06-18T10:52:41.237Z,18.86
2018-06-18T10:53:44.871Z,18.85
2018-06-18T10:54:48.677Z,18.84
2018-06-18T10:55:51.455Z,18.83
2018-06-18T10:56:55.468Z,18.74
2018-06-18T10:57:58.273Z,18.71
2018-06-18T10:59:02.701Z,18.42
2018-06-18T11:00:10.630Z,18.30
2018-06-18T11:01:15.568Z,18.40
2018-06-18T11:02:21.283Z,18.36
2018-06-18T11:03:25.430Z,18.30
2018-06-18T11:04:38.259Z,18.72
2018-06-18T11:05:48.919Z,18.68
2018-06-18T11:06:55.367Z,18.72
2018-06-18T11:07:59.852Z,18.66
2018-06-18T11:09:04.530Z,18.65
2018-06-18T11:10:10.746Z,18.80
2018-06-18T11:11:18.240Z,18.78
2018-06-18T11:12:22.071Z,19.06
2018-06-18T11:13:27.946Z,19.17
2018-06-18T11:14:30.821Z,19.45
2018-06-18T11:15:40.325Z,19.39
2018-06-18T11:16:46.840Z,19.25
2018-06-18T11:17:54.652Z,19.31
2018-06-18T11:19:06.799Z,19.36
2018-06-18T11:20:14.407Z,19.27
2018-06-18T11:21:22.207Z,19.37
2018-06-18T11:22:29.719Z,19.55
2018-06-18T11:23:37.408Z,19.69
2018-06-18T11:24:45.707Z,19.42
2018-06-18T11:25:53.992Z,18.89
2018-06-18T11:26:57.904Z,19.28
2018-06-18T11:28:02.344Z,19.38
2018-06-18T11:29:06.131Z,19.62
2018-06-18T11:30:16.539Z,19.46
2018-06-18T11:31:25.453Z,19.35
2018-06-18T11:32:29.136Z,19.37
2018-06-18T11:33:34.078Z,19.87
2018-06-18T11:34:37.977Z,19.66
2018-06-18T11:35:42.296Z,19.69
2018-06-18T11:36:45.937Z,19.59
2018-06-18T11:37:49.360Z,19.58
2018-06-18T11:38:52.229Z,19.21
2018-06-18T11:39:55.618Z,19.21
2018-06-18T11:40:58.706Z,19.43
2018-06-18T11:42:03.377Z,19.39
2018-06-18T11:43:06.145Z,19.38
2018-06-18T11:44:09.272Z,19.08
2018-06-18T11:45:12.204Z,19.25
2018-06-18T11:46:18.169Z,19.17
2018-06-18T11:47:22.201Z,18.92
2018-06-18T11:48:25.935Z,18.83
2018-06-18T11:49:28.737Z,18.93
2018-06-18T11:50:33.749Z,19.07
2018-06-18T11:51:36.547Z,19.19
2018-06-18T11:52:39.367Z,19.27
2018-06-18T11:53:42.776Z,19.34
2018-06-18T11:54:45.608Z,19.27
2018-06-18T11:55:50.377Z,19.28
2018-06-18T11:56:54.575Z,19.01
2018-06-18T11:57:57.669Z,18.86
2018-06-18T11:59:06.187Z,18.95
2018-06-18T12:00:13.917Z,18.75
2018-06-18T12:01:22.414Z,18.57
2018-06-18T12:02:30.403Z,18.63
2018-06-18T12:03:38.134Z,18.61
2018-06-18T12:04:45.884Z,18.72
2018-06-18T12:07:59.928Z,18.71
2018-06-18T12:09:08.563Z,18.93
2018-06-18T12:10:12.188Z,19.01
2018-06-18T12:11:16.606Z,19.01
2018-06-18T12:12:19.419Z,19.04
2018-06-18T12:13:22.957Z,19.12
2018-06-18T12:14:30.707Z,19.35
2018-06-18T12:15:33.544Z,19.17
2018-06-18T12:16:38.218Z,19.13
2018-06-18T12:17:41.800Z,19.07
2018-06-18T12:18:44.800Z,19.20
2018-06-18T12:19:48.462Z,19.35
2018-06-18T12:20:52.730Z,19.16
2018-06-18T12:21:56.662Z,19.03
2018-06-18T12:23:00.781Z,19.07
2018-06-18T12:24:04.381Z,19.07
2018-06-18T12:25:08.799Z,19.00
2018-06-18T12:26:13.601Z,19.00
2018-06-18T12:27:18.392Z,19.26
2018-06-18T12:28:23.216Z,19.44
2018-06-18T12:29:27.324Z,19.79
2018-06-18T12:30:30.698Z,19.61
2018-06-18T12:31:33.535Z,19.39
2018-06-18T12:32:37.877Z,19.75
2018-06-18T12:33:42.099Z,19.77
2018-06-18T12:34:44.904Z,19.91
2018-06-18T12:37:04.800Z,20.01
2018-06-18T12:38:11.523Z,19.80
2018-06-18T12:39:15.953Z,19.31
2018-06-18T12:40:19.370Z,19.45
2018-06-18T12:41:22.219Z,19.67
2018-06-18T12:42:25.044Z,19.24
2018-06-18T12:43:29.221Z,19.38
2018-06-18T12:44:36.845Z,19.32
2018-06-18T12:45:44.650Z,19.40
2018-06-18T12:46:53.465Z,19.39
2018-06-18T12:48:01.778Z,19.45
2018-06-18T12:49:09.347Z,19.38
2018-06-18T12:50:20.098Z,19.56
2018-06-18T12:51:27.797Z,19.56
2018-06-18T12:52:35.509Z,19.77
2018-06-18T12:53:43.559Z,19.81
2018-06-18T12:54:51.232Z,19.73
2018-06-18T12:56:00.071Z,20.02
2018-06-18T12:57:06.446Z,19.75
2018-06-18T12:58:09.292Z,19.52
2018-06-18T12:59:12.134Z,19.58
2018-06-18T13:00:16.079Z,19.87
2018-06-18T13:01:18.856Z,20.07
2018-06-18T13:02:22.512Z,20.23
2018-06-18T13:03:26.026Z,20.21
2018-06-18T13:04:28.821Z,19.88
2018-06-18T13:05:32.358Z,19.63
2018-06-18T13:06:36.016Z,19.52
2018-06-18T13:07:38.801Z,19.48
2018-06-18T13:08:42.590Z,19.51
2018-06-18T13:09:45.353Z,19.41
2018-06-18T13:10:48.146Z,19.44
2018-06-18T13:11:52.046Z,19.42
2018-06-18T13:12:55.143Z,19.45
2018-06-18T13:14:01.240Z,19.37
2018-06-18T13:15:04.018Z,19.49
2018-06-18T13:16:07.733Z,19.35
2018-06-18T13:17:10.498Z,19.25
2018-06-18T13:18:13.835Z,19.38
2018-06-18T13:19:16.605Z,19.48
2018-06-18T13:20:19.449Z,19.56
2018-06-18T13:21:22.241Z,19.67
2018-06-18T13:22:26.494Z,19.71
2018-06-18T13:23:29.244Z,19.81
2018-06-18T13:24:33.748Z,19.77
2018-06-18T13:25:36.501Z,19.70
2018-06-18T13:26:39.302Z,19.88
2018-06-18T13:27:47.604Z,20.03
2018-06-18T13:28:52.224Z,20.07
2018-06-18T13:29:55.694Z,20.18
2018-06-18T13:31:00.120Z,20.22
2018-06-18T13:32:04.464Z,20.08
2018-06-18T13:33:08.076Z,19.97
2018-06-18T13:34:12.668Z,19.85
2018-06-18T13:35:15.469Z,19.99
2018-06-18T13:36:19.436Z,20.05
2018-06-18T13:37:27.972Z,20.12
2018-06-18T13:38:35.996Z,20.18
2018-06-18T13:39:43.620Z,20.21
2018-06-18T13:40:53.078Z,20.07
2018-06-18T13:42:01.737Z,20.14
2018-06-18T13:43:09.732Z,20.30
2018-06-18T13:44:17.461Z,20.29
2018-06-18T13:45:25.239Z,20.03
2018-06-18T13:46:33.248Z,20.05
2018-06-18T13:47:40.922Z,20.23
2018-06-18T13:48:48.681Z,20.08
2018-06-18T13:49:56.383Z,20.22
2018-06-18T13:51:03.762Z,20.15